+43 3833 8250 0 office@segelflug.at

Wetter

ACHTUNG: Die hier angeboten Wetter-Informationen sind nicht geeicht und dürfen für Flugvorbereitungen nicht verwendet werden
ACG Flugwetter

METAR/TAF LOXZ

LOXZ 190350Z VRB02KT 12KM -SHRA SCT030SC BKN040SC 03/02 Q1018

TAF LOXZ 181415Z 1812/1824 CNL

METAR/TAF LOXA

LOXA 100820Z VRB02KT 50KM FEW120AC SCT300CI 17/13 Q1021 NOSIG RMK SCT

TAF TAF LOXA 090515Z 0906/0918 VRB03KT 0500 FG SCT060 BECMG 0906/0908 9999 NSW FEW060 BECMG 0909/0911 04007KT TEMPO 0910/0915 SCT060 BKN100

METAR/TAF LOWG 

LOWG 190420Z AUTO 11002KT 9999 OVC050 04/03 Q1018

TAF TAF LOWG 181715Z 1818/1918 VRB02KT CAVOK TX11/1913Z TN04/1823Z PROB30 TEMPO 1821/1906 VRB02KT 1200 BCFG SCT050 BECMG 1914/1917 9999 BKN014 TEMPO 1917/1918 BKN009

(Information der letzten Stunde)

(Information der letzten Stunde)

Dichtehöhe (in LOGT)
Temperatur / Windchill der letzten 10 Tage

Ext. Links zu Wetterdiensten

ALDIS

Öster.- Unwetterzentrale